Healing, United Kingdom
Current Conditions -  °F | °C
As of 6:50 PM on Thursday 23 Oct 2014 (Local Time) from EGNJ Reporting Station
Broken Clouds Broken Clouds  
Wind Chill: 15°   Ceiling: 3400
Heat Index: 15°   Visibility: 6mi
Dew Point: 13°   Wind: 17mph
Humidity: 88%   Direction: 190°S
Pressure: 29.91"   Gusts: NA
Location:  53.58°N, 0.16°W
Report Text: EGNJ 231750Z 19015KT 9999 SCT025 BKN034 15/13 Q1013
Loading
Personal Weather Stations






























Interactive Weather Map
Tropical Storm Tracking
New forecast layout! Learn more

10-Day Weather Forecast

Advertisements
Track Severe Weather on mobile